sensor_id;sensor_type;location;lat;lon;timestamp;pressure;altitude;pressure_sealevel;temperature;humidity
40708;BME280;26392;42.696;23.350;2023-04-26T00:01:56;94401.66;;;9.31;100.00
40708;BME280;26392;42.696;23.350;2023-04-26T00:04:23;94413.59;;;9.30;100.00
40708;BME280;26392;42.696;23.350;2023-04-26T00:06:49;94404.63;;;9.29;100.00
40708;BME280;26392;42.696;23.350;2023-04-26T00:09:14;94392.41;;;9.22;100.00
40708;BME280;26392;42.696;23.350;2023-04-26T00:11:40;94400.00;;;9.19;100.00
40708;BME280;26392;42.696;23.350;2023-04-26T00:14:06;94382.31;;;9.12;100.00
40708;BME280;26392;42.696;23.350;2023-04-26T00:16:31;94385.59;;;9.14;100.00
40708;BME280;26392;42.696;23.350;2023-04-26T00:18:57;94388.81;;;9.06;100.00
40708;BME280;26392;42.696;23.350;2023-04-26T00:21:22;94380.94;;;8.99;100.00
40708;BME280;26392;42.696;23.350;2023-04-26T00:23:48;94368.16;;;8.94;100.00
40708;BME280;26392;42.696;23.350;2023-04-26T00:26:13;94384.72;;;8.88;100.00
40708;BME280;26392;42.696;23.350;2023-04-26T00:28:38;94385.75;;;8.82;100.00
40708;BME280;26392;42.696;23.350;2023-04-26T00:31:04;94377.91;;;8.85;100.00
40708;BME280;26392;42.696;23.350;2023-04-26T00:33:29;94373.25;;;8.76;100.00
40708;BME280;26392;42.696;23.350;2023-04-26T00:35:55;94378.41;;;8.72;100.00
40708;BME280;26392;42.696;23.350;2023-04-26T00:38:20;94367.75;;;8.65;100.00
40708;BME280;26392;42.696;23.350;2023-04-26T00:40:45;94373.19;;;8.55;100.00
40708;BME280;26392;42.696;23.350;2023-04-26T00:43:11;94367.75;;;8.55;100.00
40708;BME280;26392;42.696;23.350;2023-04-26T00:45:36;94358.50;;;8.51;100.00
40708;BME280;26392;42.696;23.350;2023-04-26T00:48:02;94361.22;;;8.56;100.00
40708;BME280;26392;42.696;23.350;2023-04-26T00:50:29;94365.06;;;8.60;100.00
40708;BME280;26392;42.696;23.350;2023-04-26T00:52:56;94372.09;;;8.56;100.00
40708;BME280;26392;42.696;23.350;2023-04-26T00:55:23;94374.78;;;8.56;100.00
40708;BME280;26392;42.696;23.350;2023-04-26T00:57:51;94371.56;;;8.64;100.00
40708;BME280;26392;42.696;23.350;2023-04-26T01:00:17;94368.06;;;8.69;100.00
40708;BME280;26392;42.696;23.350;2023-04-26T01:02:43;94369.19;;;8.78;100.00
40708;BME280;26392;42.696;23.350;2023-04-26T01:05:09;94375.72;;;8.77;100.00
40708;BME280;26392;42.696;23.350;2023-04-26T01:07:36;94373.25;;;8.76;100.00
40708;BME280;26392;42.696;23.350;2023-04-26T01:10:03;94381.13;;;8.77;100.00
40708;BME280;26392;42.696;23.350;2023-04-26T01:12:30;94375.44;;;8.79;100.00
40708;BME280;26392;42.696;23.350;2023-04-26T01:14:56;94380.31;;;8.77;100.00
40708;BME280;26392;42.696;23.350;2023-04-26T01:17:23;94379.22;;;8.72;100.00
40708;BME280;26392;42.696;23.350;2023-04-26T01:19:50;94383.56;;;8.68;100.00
40708;BME280;26392;42.696;23.350;2023-04-26T01:22:15;94383.56;;;8.68;100.00
40708;BME280;26392;42.696;23.350;2023-04-26T01:24:43;94370.22;;;8.67;100.00
40708;BME280;26392;42.696;23.350;2023-04-26T01:27:10;94357.97;;;8.59;100.00
40708;BME280;26392;42.696;23.350;2023-04-26T01:29:35;94352.53;;;8.59;100.00
40708;BME280;26392;42.696;23.350;2023-04-26T01:32:01;94356.88;;;8.55;100.00
40708;BME280;26392;42.696;23.350;2023-04-26T01:34:26;94359.84;;;8.54;100.00
40708;BME280;26392;42.696;23.350;2023-04-26T01:36:52;94363.38;;;8.49;100.00
40708;BME280;26392;42.696;23.350;2023-04-26T01:39:18;94369.88;;;8.48;100.00
40708;BME280;26392;42.696;23.350;2023-04-26T01:41:43;94361.44;;;8.44;100.00
40708;BME280;26392;42.696;23.350;2023-04-26T01:44:08;94369.03;;;8.42;100.00
40708;BME280;26392;42.696;23.350;2023-04-26T01:46:34;94365.50;;;8.42;100.00
40708;BME280;26392;42.696;23.350;2023-04-26T01:48:59;94378.53;;;8.40;100.00
40708;BME280;26392;42.696;23.350;2023-04-26T01:51:25;94379.63;;;8.39;100.00
40708;BME280;26392;42.696;23.350;2023-04-26T01:53:51;94379.13;;;8.52;100.00
40708;BME280;26392;42.696;23.350;2023-04-26T01:56:18;94380.19;;;8.51;100.00
40708;BME280;26392;42.696;23.350;2023-04-26T01:58:44;94372.09;;;8.61;100.00
40708;BME280;26392;42.696;23.350;2023-04-26T02:01:09;94376.22;;;8.69;100.00
40708;BME280;26392;42.696;23.350;2023-04-26T02:03:35;94368.91;;;8.74;100.00
40708;BME280;26392;42.696;23.350;2023-04-26T02:06:01;94368.84;;;8.59;100.00
40708;BME280;26392;42.696;23.350;2023-04-26T02:08:27;94357.91;;;8.39;100.00
40708;BME280;26392;42.696;23.350;2023-04-26T02:10:52;94359.75;;;8.33;100.00
40708;BME280;26392;42.696;23.350;2023-04-26T02:13:18;94354.88;;;8.35;100.00
40708;BME280;26392;42.696;23.350;2023-04-26T02:15:48;94352.16;;;8.35;100.00
40708;BME280;26392;42.696;23.350;2023-04-26T02:18:14;94354.94;;;8.40;100.00
40708;BME280;26392;42.696;23.350;2023-04-26T02:20:40;94353.97;;;8.19;100.00
40708;BME280;26392;42.696;23.350;2023-04-26T02:23:07;94350.69;;;8.17;100.00
40708;BME280;26392;42.696;23.350;2023-04-26T02:25:33;94349.66;;;8.23;100.00
40708;BME280;26392;42.696;23.350;2023-04-26T02:27:58;94353.44;;;8.22;100.00
40708;BME280;26392;42.696;23.350;2023-04-26T02:30:24;94358.34;;;8.25;100.00
40708;BME280;26392;42.696;23.350;2023-04-26T02:32:52;94350.50;;;8.29;100.00
40708;BME280;26392;42.696;23.350;2023-04-26T02:35:18;94350.78;;;8.33;100.00
40708;BME280;26392;42.696;23.350;2023-04-26T02:37:43;94355.94;;;8.34;100.00
40708;BME280;26392;42.696;23.350;2023-04-26T02:40:13;94363.56;;;8.32;100.00
40708;BME280;26392;42.696;23.350;2023-04-26T02:42:38;94365.09;;;8.23;100.00
40708;BME280;26392;42.696;23.350;2023-04-26T02:45:04;94366.47;;;8.25;100.00
40708;BME280;26392;42.696;23.350;2023-04-26T02:47:29;94362.41;;;8.18;100.00
40708;BME280;26392;42.696;23.350;2023-04-26T02:49:55;94368.34;;;8.20;100.00
40708;BME280;26392;42.696;23.350;2023-04-26T02:52:20;94365.56;;;8.04;100.00
40708;BME280;26392;42.696;23.350;2023-04-26T02:54:45;94347.06;;;7.96;100.00
40708;BME280;26392;42.696;23.350;2023-04-26T02:57:11;94341.16;;;8.04;100.00
40708;BME280;26392;42.696;23.350;2023-04-26T02:59:37;94329.81;;;8.13;100.00
40708;BME280;26392;42.696;23.350;2023-04-26T03:02:02;94332.25;;;8.14;100.00
40708;BME280;26392;42.696;23.350;2023-04-26T03:04:31;94341.22;;;8.20;100.00
40708;BME280;26392;42.696;23.350;2023-04-26T03:06:58;94349.38;;;8.25;100.00
40708;BME280;26392;42.696;23.350;2023-04-26T03:09:23;94343.72;;;8.26;100.00
40708;BME280;26392;42.696;23.350;2023-04-26T03:11:48;94347.53;;;8.36;100.00
40708;BME280;26392;42.696;23.350;2023-04-26T03:14:14;94349.75;;;8.39;100.00
40708;BME280;26392;42.696;23.350;2023-04-26T03:16:40;94344.28;;;8.34;100.00
40708;BME280;26392;42.696;23.350;2023-04-26T03:19:07;94336.09;;;8.28;100.00
40708;BME280;26392;42.696;23.350;2023-04-26T03:21:32;94346.16;;;8.28;100.00
40708;BME280;26392;42.696;23.350;2023-04-26T03:23:58;94334.47;;;8.27;100.00
40708;BME280;26392;42.696;23.350;2023-04-26T03:26:23;94333.88;;;8.20;100.00
40708;BME280;26392;42.696;23.350;2023-04-26T03:28:48;94336.31;;;8.17;100.00
40708;BME280;26392;42.696;23.350;2023-04-26T03:31:14;94334.44;;;8.22;100.00
40708;BME280;26392;42.696;23.350;2023-04-26T03:33:39;94332.03;;;8.31;100.00
40708;BME280;26392;42.696;23.350;2023-04-26T03:36:05;94335.09;;;8.40;100.00
40708;BME280;26392;42.696;23.350;2023-04-26T03:38:31;94334.06;;;8.46;100.00
40708;BME280;26392;42.696;23.350;2023-04-26T03:40:56;94319.94;;;8.49;100.00
40708;BME280;26392;42.696;23.350;2023-04-26T03:43:22;94345.53;;;8.63;100.00
40708;BME280;26392;42.696;23.350;2023-04-26T03:45:48;94345.53;;;8.73;100.00
40708;BME280;26392;42.696;23.350;2023-04-26T03:48:13;94343.66;;;8.84;100.00
40708;BME280;26392;42.696;23.350;2023-04-26T03:50:40;94343.94;;;8.93;100.00
40708;BME280;26392;42.696;23.350;2023-04-26T03:53:05;94351.88;;;9.10;100.00
40708;BME280;26392;42.696;23.350;2023-04-26T03:55:30;94353.25;;;9.17;100.00
40708;BME280;26392;42.696;23.350;2023-04-26T03:57:56;94351.38;;;9.28;100.00
40708;BME280;26392;42.696;23.350;2023-04-26T04:00:21;94357.06;;;9.37;100.00
40708;BME280;26392;42.696;23.350;2023-04-26T04:02:47;94354.38;;;9.47;100.00
40708;BME280;26392;42.696;23.350;2023-04-26T04:05:12;94357.06;;;9.68;100.00
40708;BME280;26392;42.696;23.350;2023-04-26T04:07:38;94359.78;;;10.08;100.00
40708;BME280;26392;42.696;23.350;2023-04-26T04:10:03;94364.53;;;10.58;100.00
40708;BME280;26392;42.696;23.350;2023-04-26T04:12:29;94360.06;;;10.87;100.00
40708;BME280;26392;42.696;23.350;2023-04-26T04:14:54;94360.19;;;11.16;100.00
40708;BME280;26392;42.696;23.350;2023-04-26T04:17:20;94365.66;;;11.51;100.00
40708;BME280;26392;42.696;23.350;2023-04-26T04:19:45;94365.84;;;11.64;100.00
40708;BME280;26392;42.696;23.350;2023-04-26T04:22:11;94363.44;;;11.58;100.00
40708;BME280;26392;42.696;23.350;2023-04-26T04:24:36;94373.34;;;11.49;100.00
40708;BME280;26392;42.696;23.350;2023-04-26T04:27:02;94372.09;;;11.31;100.00
40708;BME280;26392;42.696;23.350;2023-04-26T04:29:28;94356.09;;;11.14;100.00
40708;BME280;26392;42.696;23.350;2023-04-26T04:31:54;94376.25;;;11.18;100.00
40708;BME280;26392;42.696;23.350;2023-04-26T04:34:19;94376.47;;;11.32;100.00
40708;BME280;26392;42.696;23.350;2023-04-26T04:36:45;94378.31;;;11.36;100.00
40708;BME280;26392;42.696;23.350;2023-04-26T04:39:10;94371.22;;;11.40;100.00
40708;BME280;26392;42.696;23.350;2023-04-26T04:41:41;94377.41;;;11.51;100.00
40708;BME280;26392;42.696;23.350;2023-04-26T04:44:13;94372.94;;;11.65;100.00
40708;BME280;26392;42.696;23.350;2023-04-26T04:46:40;94386.06;;;11.58;100.00
40708;BME280;26392;42.696;23.350;2023-04-26T04:49:05;94386.78;;;11.35;100.00
40708;BME280;26392;42.696;23.350;2023-04-26T04:51:33;94383.91;;;11.16;100.00
40708;BME280;26392;42.696;23.350;2023-04-26T04:53:59;94382.78;;;11.22;100.00
40708;BME280;26392;42.696;23.350;2023-04-26T04:56:24;94383.78;;;11.31;100.00
40708;BME280;26392;42.696;23.350;2023-04-26T04:58:50;94375.53;;;11.47;100.00
40708;BME280;26392;42.696;23.350;2023-04-26T05:01:15;94377.88;;;11.63;100.00
40708;BME280;26392;42.696;23.350;2023-04-26T05:03:41;94376.19;;;11.68;100.00
40708;BME280;26392;42.696;23.350;2023-04-26T05:06:06;94392.44;;;11.88;100.00
40708;BME280;26392;42.696;23.350;2023-04-26T05:08:33;94376.31;;;11.92;100.00
40708;BME280;26392;42.696;23.350;2023-04-26T05:10:58;94379.56;;;11.94;100.00
40708;BME280;26392;42.696;23.350;2023-04-26T05:13:24;94377.91;;;11.93;100.00
40708;BME280;26392;42.696;23.350;2023-04-26T05:15:49;94378.19;;;11.96;100.00
40708;BME280;26392;42.696;23.350;2023-04-26T05:18:14;94364.22;;;11.98;100.00
40708;BME280;26392;42.696;23.350;2023-04-26T05:20:40;94389.19;;;11.86;100.00
40708;BME280;26392;42.696;23.350;2023-04-26T05:23:05;94383.44;;;11.82;100.00
40708;BME280;26392;42.696;23.350;2023-04-26T05:25:35;94382.47;;;11.68;100.00
40708;BME280;26392;42.696;23.350;2023-04-26T05:28:01;94396.34;;;11.72;100.00
40708;BME280;26392;42.696;23.350;2023-04-26T05:30:26;94392.78;;;11.76;100.00
40708;BME280;26392;42.696;23.350;2023-04-26T05:32:52;94398.66;;;11.54;100.00
40708;BME280;26392;42.696;23.350;2023-04-26T05:35:17;94391.75;;;11.67;100.00
40708;BME280;26392;42.696;23.350;2023-04-26T05:37:43;94402.63;;;11.72;100.00
40708;BME280;26392;42.696;23.350;2023-04-26T05:40:08;94396.00;;;11.83;100.00
40708;BME280;26392;42.696;23.350;2023-04-26T05:42:36;94394.00;;;11.99;100.00
40708;BME280;26392;42.696;23.350;2023-04-26T05:45:01;94396.44;;;11.96;100.00
40708;BME280;26392;42.696;23.350;2023-04-26T05:47:27;94398.84;;;12.07;100.00
40708;BME280;26392;42.696;23.350;2023-04-26T05:49:52;94399.81;;;11.88;100.00
40708;BME280;26392;42.696;23.350;2023-04-26T05:52:18;94413.16;;;11.89;100.00
40708;BME280;26392;42.696;23.350;2023-04-26T05:54:43;94411.00;;;11.81;100.00
40708;BME280;26392;42.696;23.350;2023-04-26T05:57:08;94386.56;;;12.05;100.00
40708;BME280;26392;42.696;23.350;2023-04-26T05:59:37;94397.72;;;12.38;100.00
40708;BME280;26392;42.696;23.350;2023-04-26T06:02:02;94404.25;;;12.66;100.00
40708;BME280;26392;42.696;23.350;2023-04-26T06:04:29;94403.66;;;12.45;100.00
40708;BME280;26392;42.696;23.350;2023-04-26T06:06:54;94407.63;;;12.58;100.00
40708;BME280;26392;42.696;23.350;2023-04-26T06:09:19;94406.97;;;12.66;100.00
40708;BME280;26392;42.696;23.350;2023-04-26T06:11:45;94399.97;;;12.84;100.00
40708;BME280;26392;42.696;23.350;2023-04-26T06:14:10;94397.81;;;12.81;100.00
40708;BME280;26392;42.696;23.350;2023-04-26T06:16:36;94411.03;;;12.68;100.00
40708;BME280;26392;42.696;23.350;2023-04-26T06:19:01;94410.00;;;12.64;100.00
40708;BME280;26392;42.696;23.350;2023-04-26T06:21:27;94393.88;;;12.39;100.00
40708;BME280;26392;42.696;23.350;2023-04-26T06:23:52;94399.00;;;12.45;100.00
40708;BME280;26392;42.696;23.350;2023-04-26T06:26:18;94407.91;;;12.56;100.00
40708;BME280;26392;42.696;23.350;2023-04-26T06:28:43;94403.22;;;12.62;100.00
40708;BME280;26392;42.696;23.350;2023-04-26T06:31:08;94399.53;;;12.71;100.00
40708;BME280;26392;42.696;23.350;2023-04-26T06:33:34;94407.19;;;12.74;100.00
40708;BME280;26392;42.696;23.350;2023-04-26T06:35:59;94402.00;;;12.73;100.00
40708;BME280;26392;42.696;23.350;2023-04-26T06:38:24;94392.63;;;12.79;100.00
40708;BME280;26392;42.696;23.350;2023-04-26T06:40:50;94399.31;;;12.92;100.00
40708;BME280;26392;42.696;23.350;2023-04-26T06:43:15;94398.53;;;13.10;100.00
40708;BME280;26392;42.696;23.350;2023-04-26T06:45:41;94388.84;;;13.42;100.00
40708;BME280;26392;42.696;23.350;2023-04-26T06:48:06;94388.75;;;13.66;100.00
40708;BME280;26392;42.696;23.350;2023-04-26T06:50:32;94406.03;;;13.99;100.00
40708;BME280;26392;42.696;23.350;2023-04-26T06:52:58;94395.28;;;14.03;100.00
40708;BME280;26392;42.696;23.350;2023-04-26T06:55:23;94391.41;;;13.90;99.50
40708;BME280;26392;42.696;23.350;2023-04-26T06:57:49;94400.44;;;13.72;100.00
40708;BME280;26392;42.696;23.350;2023-04-26T07:00:15;94401.63;;;13.65;100.00
40708;BME280;26392;42.696;23.350;2023-04-26T07:02:41;94402.22;;;13.62;100.00
40708;BME280;26392;42.696;23.350;2023-04-26T07:05:07;94405.31;;;13.75;99.46
40708;BME280;26392;42.696;23.350;2023-04-26T07:07:32;94412.56;;;13.65;97.15
40708;BME280;26392;42.696;23.350;2023-04-26T07:09:58;94410.19;;;13.78;97.48
40708;BME280;26392;42.696;23.350;2023-04-26T07:12:23;94405.78;;;13.63;98.06
40708;BME280;26392;42.696;23.350;2023-04-26T07:14:49;94403.09;;;13.77;98.05
40708;BME280;26392;42.696;23.350;2023-04-26T07:17:14;94402.28;;;13.57;99.52
40708;BME280;26392;42.696;23.350;2023-04-26T07:19:40;94407.09;;;13.65;99.80
40708;BME280;26392;42.696;23.350;2023-04-26T07:22:05;94400.88;;;13.79;97.47
40708;BME280;26392;42.696;23.350;2023-04-26T07:24:30;94414.41;;;13.89;96.54
40708;BME280;26392;42.696;23.350;2023-04-26T07:26:56;94407.03;;;13.90;91.58
40708;BME280;26392;42.696;23.350;2023-04-26T07:29:21;94414.44;;;13.70;90.70
40708;BME280;26392;42.696;23.350;2023-04-26T07:31:47;94408.16;;;13.70;91.63
40708;BME280;26392;42.696;23.350;2023-04-26T07:34:13;94412.50;;;13.71;90.11
40708;BME280;26392;42.696;23.350;2023-04-26T07:36:38;94419.44;;;13.63;91.20
40708;BME280;26392;42.696;23.350;2023-04-26T07:39:04;94425.97;;;13.67;89.69
40708;BME280;26392;42.696;23.350;2023-04-26T07:41:30;94416.28;;;13.56;87.17
40708;BME280;26392;42.696;23.350;2023-04-26T07:43:56;94423.97;;;13.73;87.51
40708;BME280;26392;42.696;23.350;2023-04-26T07:46:22;94420.94;;;13.74;83.87
40708;BME280;26392;42.696;23.350;2023-04-26T07:48:47;94422.72;;;13.65;80.68
40708;BME280;26392;42.696;23.350;2023-04-26T07:51:12;94421.50;;;13.52;85.00
40708;BME280;26392;42.696;23.350;2023-04-26T07:53:39;94427.06;;;13.66;81.94
40708;BME280;26392;42.696;23.350;2023-04-26T07:56:06;94422.13;;;13.87;80.71
40708;BME280;26392;42.696;23.350;2023-04-26T07:58:35;94417.31;;;13.79;73.77
40708;BME280;26392;42.696;23.350;2023-04-26T08:01:01;94424.19;;;13.95;72.25
40708;BME280;26392;42.696;23.350;2023-04-26T08:03:27;94414.91;;;14.10;71.40
40708;BME280;26392;42.696;23.350;2023-04-26T08:05:53;94416.72;;;14.47;71.00
40708;BME280;26392;42.696;23.350;2023-04-26T08:08:19;94424.28;;;14.55;69.15
40708;BME280;26392;42.696;23.350;2023-04-26T08:10:46;94424.22;;;14.74;68.61
40708;BME280;26392;42.696;23.350;2023-04-26T08:13:11;94426.94;;;14.61;69.37
40708;BME280;26392;42.696;23.350;2023-04-26T08:15:36;94422.88;;;14.58;69.98
40708;BME280;26392;42.696;23.350;2023-04-26T08:18:02;94414.59;;;14.44;71.00
40708;BME280;26392;42.696;23.350;2023-04-26T08:20:28;94420.06;;;14.44;69.83
40708;BME280;26392;42.696;23.350;2023-04-26T08:22:55;94420.75;;;14.36;71.35
40708;BME280;26392;42.696;23.350;2023-04-26T08:25:21;94425.94;;;14.57;69.81
40708;BME280;26392;42.696;23.350;2023-04-26T08:27:47;94419.66;;;14.84;69.56
40708;BME280;26392;42.696;23.350;2023-04-26T08:30:12;94436.81;;;15.17;68.36
40708;BME280;26392;42.696;23.350;2023-04-26T08:32:38;94419.75;;;15.20;65.78
40708;BME280;26392;42.696;23.350;2023-04-26T08:35:04;94425.94;;;15.12;64.46
40708;BME280;26392;42.696;23.350;2023-04-26T08:37:29;94418.84;;;14.83;65.25
40708;BME280;26392;42.696;23.350;2023-04-26T08:39:55;94419.88;;;14.87;66.82
40708;BME280;26392;42.696;23.350;2023-04-26T08:42:24;94424.63;;;14.68;68.16
40708;BME280;26392;42.696;23.350;2023-04-26T08:44:52;94413.50;;;14.45;67.86
40708;BME280;26392;42.696;23.350;2023-04-26T08:50:04;94416.13;;;14.50;66.16
40708;BME280;26392;42.696;23.350;2023-04-26T08:52:31;94418.53;;;14.71;66.61
40708;BME280;26392;42.696;23.350;2023-04-26T08:54:58;94421.78;;;14.87;64.27
40708;BME280;26392;42.696;23.350;2023-04-26T08:57:25;94409.69;;;14.74;64.71
40708;BME280;26392;42.696;23.350;2023-04-26T08:59:51;94429.81;;;14.83;64.94
40708;BME280;26392;42.696;23.350;2023-04-26T09:02:21;94421.09;;;15.09;64.49
40708;BME280;26392;42.696;23.350;2023-04-26T09:04:48;94435.22;;;15.16;62.83
40708;BME280;26392;42.696;23.350;2023-04-26T09:07:29;94420.34;;;15.31;60.74
40708;BME280;26392;42.696;23.350;2023-04-26T09:09:56;94427.44;;;15.59;60.20
40708;BME280;26392;42.696;23.350;2023-04-26T09:12:23;94434.56;;;15.74;59.54
40708;BME280;26392;42.696;23.350;2023-04-26T09:14:48;94422.88;;;15.55;58.50
40708;BME280;26392;42.696;23.350;2023-04-26T09:17:43;94428.47;;;15.50;60.42
40708;BME280;26392;42.696;23.350;2023-04-26T09:20:20;94418.00;;;15.52;58.81
40708;BME280;26392;42.696;23.350;2023-04-26T09:22:47;94434.28;;;15.34;57.49
40708;BME280;26392;42.696;23.350;2023-04-26T09:25:15;94427.34;;;15.51;57.91
40708;BME280;26392;42.696;23.350;2023-04-26T09:27:43;94429.56;;;15.49;57.37
40708;BME280;26392;42.696;23.350;2023-04-26T09:35:38;94435.56;;;15.51;57.03
40708;BME280;26392;42.696;23.350;2023-04-26T09:38:09;94424.09;;;15.49;57.19
40708;BME280;26392;42.696;23.350;2023-04-26T09:40:45;94418.81;;;15.52;55.97
40708;BME280;26392;42.696;23.350;2023-04-26T09:43:14;94426.31;;;15.74;56.28
40708;BME280;26392;42.696;23.350;2023-04-26T09:46:00;94427.28;;;15.92;56.23
40708;BME280;26392;42.696;23.350;2023-04-26T09:48:30;94430.09;;;16.01;55.37
40708;BME280;26392;42.696;23.350;2023-04-26T09:51:17;94419.97;;;16.32;53.80
40708;BME280;26392;42.696;23.350;2023-04-26T09:53:46;94417.38;;;16.27;52.91
40708;BME280;26392;42.696;23.350;2023-04-26T09:56:17;94422.03;;;16.27;53.01
40708;BME280;26392;42.696;23.350;2023-04-26T10:01:09;94410.41;;;15.85;54.41
40708;BME280;26392;42.696;23.350;2023-04-26T10:03:36;94429.28;;;16.00;53.53
40708;BME280;26392;42.696;23.350;2023-04-26T10:06:02;94417.44;;;16.14;52.21
40708;BME280;26392;42.696;23.350;2023-04-26T10:08:30;94425.63;;;16.27;50.97
40708;BME280;26392;42.696;23.350;2023-04-26T10:10:56;94406.25;;;16.10;50.06
40708;BME280;26392;42.696;23.350;2023-04-26T10:13:22;94418.88;;;16.11;50.08
40708;BME280;26392;42.696;23.350;2023-04-26T10:15:47;94409.03;;;16.19;50.22
40708;BME280;26392;42.696;23.350;2023-04-26T10:18:13;94428.97;;;16.24;49.06
40708;BME280;26392;42.696;23.350;2023-04-26T10:20:40;94409.81;;;16.10;49.22
40708;BME280;26392;42.696;23.350;2023-04-26T10:23:15;94415.84;;;16.21;49.27
40708;BME280;26392;42.696;23.350;2023-04-26T10:25:44;94414.69;;;16.36;48.40
40708;BME280;26392;42.696;23.350;2023-04-26T10:28:09;94403.19;;;16.34;48.15
40708;BME280;26392;42.696;23.350;2023-04-26T10:30:53;94401.63;;;16.42;47.91
40708;BME280;26392;42.696;23.350;2023-04-26T10:33:19;94413.50;;;16.28;48.58
40708;BME280;26392;42.696;23.350;2023-04-26T10:36:04;94409.38;;;16.17;47.13
40708;BME280;26392;42.696;23.350;2023-04-26T10:38:30;94405.94;;;16.11;47.55
40708;BME280;26392;42.696;23.350;2023-04-26T10:41:34;94407.31;;;16.00;47.43
40708;BME280;26392;42.696;23.350;2023-04-26T10:44:40;94397.06;;;16.15;47.24
40708;BME280;26392;42.696;23.350;2023-04-26T10:47:19;94398.25;;;16.22;47.09
40708;BME280;26392;42.696;23.350;2023-04-26T10:49:45;94402.44;;;16.20;46.20
40708;BME280;26392;42.696;23.350;2023-04-26T10:52:19;94399.84;;;16.46;45.86
40708;BME280;26392;42.696;23.350;2023-04-26T10:54:53;94396.25;;;16.14;44.80
40708;BME280;26392;42.696;23.350;2023-04-26T10:57:20;94393.13;;;16.07;45.69
40708;BME280;26392;42.696;23.350;2023-04-26T11:02:58;94392.34;;;15.70;46.00
40708;BME280;26392;42.696;23.350;2023-04-26T11:08:07;94387.19;;;15.69;46.15
40708;BME280;26392;42.696;23.350;2023-04-26T11:10:36;94397.84;;;15.70;45.75
40708;BME280;26392;42.696;23.350;2023-04-26T11:13:02;94391.69;;;15.87;46.94
40708;BME280;26392;42.696;23.350;2023-04-26T11:15:30;94399.19;;;15.95;46.00
40708;BME280;26392;42.696;23.350;2023-04-26T11:17:56;94390.66;;;15.97;46.16
40708;BME280;26392;42.696;23.350;2023-04-26T11:20:21;94392.03;;;16.08;45.92
40708;BME280;26392;42.696;23.350;2023-04-26T11:22:47;94396.00;;;16.24;46.72
40708;BME280;26392;42.696;23.350;2023-04-26T11:25:13;94393.00;;;16.12;46.07
40708;BME280;26392;42.696;23.350;2023-04-26T11:27:38;94401.31;;;15.98;45.72
40708;BME280;26392;42.696;23.350;2023-04-26T11:30:04;94396.69;;;16.07;46.42
40708;BME280;26392;42.696;23.350;2023-04-26T11:32:30;94396.25;;;16.14;44.96
40708;BME280;26392;42.696;23.350;2023-04-26T11:34:59;94396.94;;;16.42;45.01
40708;BME280;26392;42.696;23.350;2023-04-26T11:37:24;94389.78;;;16.64;44.30
40708;BME280;26392;42.696;23.350;2023-04-26T11:39:50;94386.97;;;16.55;44.94
40708;BME280;26392;42.696;23.350;2023-04-26T11:42:16;94389.53;;;16.51;44.83
40708;BME280;26392;42.696;23.350;2023-04-26T11:44:41;94382.81;;;16.66;44.01
40708;BME280;26392;42.696;23.350;2023-04-26T11:47:07;94388.31;;;16.89;43.82
40708;BME280;26392;42.696;23.350;2023-04-26T11:49:35;94381.09;;;17.10;43.19
40708;BME280;26392;42.696;23.350;2023-04-26T11:52:01;94382.06;;;17.06;43.62
40708;BME280;26392;42.696;23.350;2023-04-26T11:54:30;94383.91;;;17.36;43.25
40708;BME280;26392;42.696;23.350;2023-04-26T11:56:57;94369.19;;;17.32;42.87
40708;BME280;26392;42.696;23.350;2023-04-26T11:59:26;94380.88;;;17.55;42.53
40708;BME280;26392;42.696;23.350;2023-04-26T12:01:55;94364.34;;;17.55;43.11
40708;BME280;26392;42.696;23.350;2023-04-26T12:04:28;94391.78;;;17.12;43.93
40708;BME280;26392;42.696;23.350;2023-04-26T12:06:54;94374.91;;;16.96;43.48
40708;BME280;26392;42.696;23.350;2023-04-26T12:09:26;94382.31;;;16.87;43.66
40708;BME280;26392;42.696;23.350;2023-04-26T12:12:01;94373.63;;;16.71;44.35
40708;BME280;26392;42.696;23.350;2023-04-26T12:14:38;94378.63;;;16.38;45.15
40708;BME280;26392;42.696;23.350;2023-04-26T12:17:05;94381.13;;;16.48;46.10
40708;BME280;26392;42.696;23.350;2023-04-26T12:19:39;94375.88;;;16.38;45.19
40708;BME280;26392;42.696;23.350;2023-04-26T12:22:06;94379.97;;;16.49;45.67
40708;BME280;26392;42.696;23.350;2023-04-26T12:24:33;94372.88;;;16.48;44.89
40708;BME280;26392;42.696;23.350;2023-04-26T12:27:00;94373.97;;;16.16;45.38
40708;BME280;26392;42.696;23.350;2023-04-26T12:29:27;94375.59;;;15.94;44.64
40708;BME280;26392;42.696;23.350;2023-04-26T12:31:55;94363.78;;;15.71;45.30
40708;BME280;26392;42.696;23.350;2023-04-26T12:34:21;94366.16;;;15.50;45.76
40708;BME280;26392;42.696;23.350;2023-04-26T12:36:46;94374.66;;;15.62;45.83
40708;BME280;26392;42.696;23.350;2023-04-26T12:39:12;94378.00;;;15.73;45.71
40708;BME280;26392;42.696;23.350;2023-04-26T12:41:40;94373.84;;;15.62;45.38
40708;BME280;26392;42.696;23.350;2023-04-26T12:44:10;94373.09;;;15.34;46.53
40708;BME280;26392;42.696;23.350;2023-04-26T12:46:35;94379.00;;;15.41;47.04
40708;BME280;26392;42.696;23.350;2023-04-26T12:49:01;94360.00;;;15.31;47.08
40708;BME280;26392;42.696;23.350;2023-04-26T12:51:27;94367.00;;;15.23;47.90
40708;BME280;26392;42.696;23.350;2023-04-26T12:53:53;94369.28;;;15.07;48.36
40708;BME280;26392;42.696;23.350;2023-04-26T12:56:18;94374.97;;;15.11;48.91
40708;BME280;26392;42.696;23.350;2023-04-26T12:58:44;94379.22;;;15.17;47.67
40708;BME280;26392;42.696;23.350;2023-04-26T13:01:12;94382.28;;;15.02;47.09
40708;BME280;26392;42.696;23.350;2023-04-26T13:03:38;94374.34;;;14.86;46.93